sensor_id;sensor_type;location;lat;lon;timestamp;P1;durP1;ratioP1;P2;durP2;ratioP2
10450;SDS011;5273;51.290;6.918;2023-07-29T00:00:41;8.52;;;3.30;;
10450;SDS011;5273;51.290;6.918;2023-07-29T00:03:08;5.95;;;3.10;;
10450;SDS011;5273;51.290;6.918;2023-07-29T00:05:35;5.53;;;3.90;;
10450;SDS011;5273;51.290;6.918;2023-07-29T00:08:04;4.32;;;4.03;;
10450;SDS011;5273;51.290;6.918;2023-07-29T00:10:32;4.60;;;3.80;;
10450;SDS011;5273;51.290;6.918;2023-07-29T00:13:01;5.97;;;3.58;;
10450;SDS011;5273;51.290;6.918;2023-07-29T00:15:28;4.53;;;3.67;;
10450;SDS011;5273;51.290;6.918;2023-07-29T00:17:55;5.28;;;4.38;;
10450;SDS011;5273;51.290;6.918;2023-07-29T00:20:22;5.13;;;3.55;;
10450;SDS011;5273;51.290;6.918;2023-07-29T00:22:49;4.78;;;3.55;;
10450;SDS011;5273;51.290;6.918;2023-07-29T00:25:20;9.68;;;3.80;;
10450;SDS011;5273;51.290;6.918;2023-07-29T00:27:47;8.32;;;3.55;;
10450;SDS011;5273;51.290;6.918;2023-07-29T00:30:14;5.50;;;3.05;;
10450;SDS011;5273;51.290;6.918;2023-07-29T00:32:40;4.57;;;3.10;;
10450;SDS011;5273;51.290;6.918;2023-07-29T00:35:08;6.80;;;3.20;;
10450;SDS011;5273;51.290;6.918;2023-07-29T00:37:35;5.53;;;2.97;;
10450;SDS011;5273;51.290;6.918;2023-07-29T00:40:02;4.47;;;3.40;;
10450;SDS011;5273;51.290;6.918;2023-07-29T00:42:31;3.38;;;3.08;;
10450;SDS011;5273;51.290;6.918;2023-07-29T00:44:58;4.53;;;3.53;;
10450;SDS011;5273;51.290;6.918;2023-07-29T00:47:25;3.65;;;3.00;;
10450;SDS011;5273;51.290;6.918;2023-07-29T00:49:51;3.35;;;3.08;;
10450;SDS011;5273;51.290;6.918;2023-07-29T00:52:18;7.32;;;3.83;;
10450;SDS011;5273;51.290;6.918;2023-07-29T00:54:45;5.90;;;3.13;;
10450;SDS011;5273;51.290;6.918;2023-07-29T00:57:12;4.25;;;3.10;;
10450;SDS011;5273;51.290;6.918;2023-07-29T00:59:42;4.15;;;2.83;;
10450;SDS011;5273;51.290;6.918;2023-07-29T01:02:10;6.32;;;2.97;;
10450;SDS011;5273;51.290;6.918;2023-07-29T01:04:36;4.30;;;3.40;;
10450;SDS011;5273;51.290;6.918;2023-07-29T01:07:06;4.25;;;3.47;;
10450;SDS011;5273;51.290;6.918;2023-07-29T01:09:41;7.65;;;3.50;;
10450;SDS011;5273;51.290;6.918;2023-07-29T01:12:11;6.28;;;3.35;;
10450;SDS011;5273;51.290;6.918;2023-07-29T01:14:50;3.60;;;3.25;;
10450;SDS011;5273;51.290;6.918;2023-07-29T01:17:23;11.50;;;3.20;;
10450;SDS011;5273;51.290;6.918;2023-07-29T01:19:58;7.15;;;3.28;;
10450;SDS011;5273;51.290;6.918;2023-07-29T01:22:28;6.70;;;3.75;;
10450;SDS011;5273;51.290;6.918;2023-07-29T01:24:57;7.28;;;3.40;;
10450;SDS011;5273;51.290;6.918;2023-07-29T01:27:24;3.45;;;2.70;;
10450;SDS011;5273;51.290;6.918;2023-07-29T01:29:51;5.18;;;2.90;;
10450;SDS011;5273;51.290;6.918;2023-07-29T01:32:19;3.67;;;2.70;;
10450;SDS011;5273;51.290;6.918;2023-07-29T01:34:54;3.20;;;2.90;;
10450;SDS011;5273;51.290;6.918;2023-07-29T01:37:34;4.75;;;3.00;;
10450;SDS011;5273;51.290;6.918;2023-07-29T01:40:06;6.18;;;3.20;;
10450;SDS011;5273;51.290;6.918;2023-07-29T01:42:36;3.25;;;2.92;;
10450;SDS011;5273;51.290;6.918;2023-07-29T01:45:04;6.28;;;3.28;;
10450;SDS011;5273;51.290;6.918;2023-07-29T01:47:31;4.40;;;3.47;;
10450;SDS011;5273;51.290;6.918;2023-07-29T01:49:58;5.32;;;3.60;;
10450;SDS011;5273;51.290;6.918;2023-07-29T01:52:25;4.90;;;3.70;;
10450;SDS011;5273;51.290;6.918;2023-07-29T01:54:52;15.15;;;3.90;;
10450;SDS011;5273;51.290;6.918;2023-07-29T01:57:20;5.97;;;3.90;;
10450;SDS011;5273;51.290;6.918;2023-07-29T01:59:47;4.15;;;3.65;;
10450;SDS011;5273;51.290;6.918;2023-07-29T02:02:13;3.58;;;3.20;;
10450;SDS011;5273;51.290;6.918;2023-07-29T02:04:40;4.22;;;3.83;;
10450;SDS011;5273;51.290;6.918;2023-07-29T02:07:07;6.47;;;3.35;;
10450;SDS011;5273;51.290;6.918;2023-07-29T02:09:34;7.78;;;3.75;;
10450;SDS011;5273;51.290;6.918;2023-07-29T02:12:01;3.95;;;3.22;;
10450;SDS011;5273;51.290;6.918;2023-07-29T02:14:29;3.90;;;3.25;;
10450;SDS011;5273;51.290;6.918;2023-07-29T02:16:56;5.32;;;3.63;;
10450;SDS011;5273;51.290;6.918;2023-07-29T02:19:22;4.72;;;3.50;;
10450;SDS011;5273;51.290;6.918;2023-07-29T02:21:49;6.43;;;3.40;;
10450;SDS011;5273;51.290;6.918;2023-07-29T02:24:16;5.75;;;3.20;;
10450;SDS011;5273;51.290;6.918;2023-07-29T02:26:43;4.10;;;3.38;;
10450;SDS011;5273;51.290;6.918;2023-07-29T02:29:09;5.68;;;4.45;;
10450;SDS011;5273;51.290;6.918;2023-07-29T02:31:37;4.30;;;3.90;;
10450;SDS011;5273;51.290;6.918;2023-07-29T02:34:04;4.78;;;3.85;;
10450;SDS011;5273;51.290;6.918;2023-07-29T02:36:31;6.05;;;3.78;;
10450;SDS011;5273;51.290;6.918;2023-07-29T02:38:58;4.55;;;3.53;;
10450;SDS011;5273;51.290;6.918;2023-07-29T02:41:25;7.70;;;4.40;;
10450;SDS011;5273;51.290;6.918;2023-07-29T02:43:51;8.25;;;4.60;;
10450;SDS011;5273;51.290;6.918;2023-07-29T02:46:18;8.98;;;4.43;;
10450;SDS011;5273;51.290;6.918;2023-07-29T02:48:46;10.23;;;4.72;;
10450;SDS011;5273;51.290;6.918;2023-07-29T02:51:13;6.57;;;5.00;;
10450;SDS011;5273;51.290;6.918;2023-07-29T02:53:40;8.15;;;4.93;;
10450;SDS011;5273;51.290;6.918;2023-07-29T02:56:07;4.60;;;4.22;;
10450;SDS011;5273;51.290;6.918;2023-07-29T02:58:35;5.13;;;4.70;;
10450;SDS011;5273;51.290;6.918;2023-07-29T03:01:02;6.13;;;4.95;;
10450;SDS011;5273;51.290;6.918;2023-07-29T03:03:30;4.95;;;4.55;;
10450;SDS011;5273;51.290;6.918;2023-07-29T03:06:00;5.68;;;5.18;;
10450;SDS011;5273;51.290;6.918;2023-07-29T03:08:27;7.47;;;4.93;;
10450;SDS011;5273;51.290;6.918;2023-07-29T03:10:55;5.25;;;4.75;;
10450;SDS011;5273;51.290;6.918;2023-07-29T03:13:22;9.95;;;4.93;;
10450;SDS011;5273;51.290;6.918;2023-07-29T03:15:49;6.38;;;5.25;;
10450;SDS011;5273;51.290;6.918;2023-07-29T03:18:16;6.13;;;4.55;;
10450;SDS011;5273;51.290;6.918;2023-07-29T03:20:43;7.32;;;4.43;;
10450;SDS011;5273;51.290;6.918;2023-07-29T03:23:11;4.95;;;4.45;;
10450;SDS011;5273;51.290;6.918;2023-07-29T03:25:38;7.55;;;4.57;;
10450;SDS011;5273;51.290;6.918;2023-07-29T03:28:05;7.22;;;3.83;;
10450;SDS011;5273;51.290;6.918;2023-07-29T03:30:31;5.05;;;4.53;;
10450;SDS011;5273;51.290;6.918;2023-07-29T03:32:58;4.50;;;4.10;;
10450;SDS011;5273;51.290;6.918;2023-07-29T03:35:25;5.45;;;4.30;;
10450;SDS011;5273;51.290;6.918;2023-07-29T03:37:52;7.80;;;4.20;;
10450;SDS011;5273;51.290;6.918;2023-07-29T03:40:20;5.68;;;4.50;;
10450;SDS011;5273;51.290;6.918;2023-07-29T03:42:47;6.63;;;4.88;;
10450;SDS011;5273;51.290;6.918;2023-07-29T03:45:14;6.45;;;5.00;;
10450;SDS011;5273;51.290;6.918;2023-07-29T03:47:41;7.13;;;5.10;;
10450;SDS011;5273;51.290;6.918;2023-07-29T03:50:08;6.85;;;5.20;;
10450;SDS011;5273;51.290;6.918;2023-07-29T03:52:35;7.40;;;4.88;;
10450;SDS011;5273;51.290;6.918;2023-07-29T03:55:02;6.03;;;5.05;;
10450;SDS011;5273;51.290;6.918;2023-07-29T03:57:30;7.88;;;5.05;;
10450;SDS011;5273;51.290;6.918;2023-07-29T03:59:57;6.65;;;5.50;;
10450;SDS011;5273;51.290;6.918;2023-07-29T04:02:24;6.82;;;5.70;;
10450;SDS011;5273;51.290;6.918;2023-07-29T04:04:51;6.20;;;5.60;;
10450;SDS011;5273;51.290;6.918;2023-07-29T04:07:17;6.30;;;5.63;;
10450;SDS011;5273;51.290;6.918;2023-07-29T04:09:44;7.18;;;5.00;;
10450;SDS011;5273;51.290;6.918;2023-07-29T04:12:11;6.60;;;5.95;;
10450;SDS011;5273;51.290;6.918;2023-07-29T04:14:39;9.02;;;5.60;;
10450;SDS011;5273;51.290;6.918;2023-07-29T04:17:06;5.90;;;4.82;;
10450;SDS011;5273;51.290;6.918;2023-07-29T04:19:33;7.03;;;5.05;;
10450;SDS011;5273;51.290;6.918;2023-07-29T04:22:00;7.18;;;4.55;;
10450;SDS011;5273;51.290;6.918;2023-07-29T04:24:27;5.15;;;4.38;;
10450;SDS011;5273;51.290;6.918;2023-07-29T04:26:54;5.43;;;4.25;;
10450;SDS011;5273;51.290;6.918;2023-07-29T04:29:21;4.65;;;4.30;;
10450;SDS011;5273;51.290;6.918;2023-07-29T04:31:49;4.50;;;4.10;;
10450;SDS011;5273;51.290;6.918;2023-07-29T04:34:17;6.18;;;3.95;;
10450;SDS011;5273;51.290;6.918;2023-07-29T04:36:44;5.97;;;3.97;;
10450;SDS011;5273;51.290;6.918;2023-07-29T04:39:10;5.05;;;4.60;;
10450;SDS011;5273;51.290;6.918;2023-07-29T04:41:37;4.97;;;4.47;;
10450;SDS011;5273;51.290;6.918;2023-07-29T04:44:04;4.85;;;4.25;;
10450;SDS011;5273;51.290;6.918;2023-07-29T04:46:31;4.30;;;3.90;;
10450;SDS011;5273;51.290;6.918;2023-07-29T04:48:59;6.75;;;4.18;;
10450;SDS011;5273;51.290;6.918;2023-07-29T04:51:26;4.68;;;4.07;;
10450;SDS011;5273;51.290;6.918;2023-07-29T04:53:53;5.53;;;4.38;;
10450;SDS011;5273;51.290;6.918;2023-07-29T04:56:19;4.20;;;3.78;;
10450;SDS011;5273;51.290;6.918;2023-07-29T04:58:46;4.53;;;4.05;;
10450;SDS011;5273;51.290;6.918;2023-07-29T05:01:13;6.35;;;4.03;;
10450;SDS011;5273;51.290;6.918;2023-07-29T05:03:40;5.05;;;3.70;;
10450;SDS011;5273;51.290;6.918;2023-07-29T05:06:08;5.55;;;4.05;;
10450;SDS011;5273;51.290;6.918;2023-07-29T05:08:35;6.60;;;4.53;;
10450;SDS011;5273;51.290;6.918;2023-07-29T05:11:01;7.07;;;4.20;;
10450;SDS011;5273;51.290;6.918;2023-07-29T05:13:28;4.43;;;4.00;;
10450;SDS011;5273;51.290;6.918;2023-07-29T05:15:55;4.68;;;4.25;;
10450;SDS011;5273;51.290;6.918;2023-07-29T05:18:22;5.45;;;4.35;;
10450;SDS011;5273;51.290;6.918;2023-07-29T05:20:48;7.60;;;4.25;;
10450;SDS011;5273;51.290;6.918;2023-07-29T05:23:17;6.05;;;4.30;;
10450;SDS011;5273;51.290;6.918;2023-07-29T05:25:43;4.07;;;3.67;;
10450;SDS011;5273;51.290;6.918;2023-07-29T05:28:10;6.05;;;4.43;;
10450;SDS011;5273;51.290;6.918;2023-07-29T05:30:37;4.90;;;4.22;;
10450;SDS011;5273;51.290;6.918;2023-07-29T05:33:05;5.82;;;4.03;;
10450;SDS011;5273;51.290;6.918;2023-07-29T05:35:32;5.22;;;4.18;;
10450;SDS011;5273;51.290;6.918;2023-07-29T05:37:59;4.18;;;3.72;;
10450;SDS011;5273;51.290;6.918;2023-07-29T05:40:27;4.53;;;3.92;;
10450;SDS011;5273;51.290;6.918;2023-07-29T05:42:54;5.05;;;4.07;;
10450;SDS011;5273;51.290;6.918;2023-07-29T05:45:21;6.68;;;4.20;;
10450;SDS011;5273;51.290;6.918;2023-07-29T05:47:48;5.05;;;4.00;;
10450;SDS011;5273;51.290;6.918;2023-07-29T05:50:15;4.15;;;3.75;;
10450;SDS011;5273;51.290;6.918;2023-07-29T05:52:41;4.72;;;4.10;;
10450;SDS011;5273;51.290;6.918;2023-07-29T05:55:08;4.65;;;3.80;;
10450;SDS011;5273;51.290;6.918;2023-07-29T05:57:36;5.18;;;4.32;;
10450;SDS011;5273;51.290;6.918;2023-07-29T06:00:04;4.60;;;4.20;;
10450;SDS011;5273;51.290;6.918;2023-07-29T06:02:31;5.35;;;4.45;;
10450;SDS011;5273;51.290;6.918;2023-07-29T06:04:58;6.03;;;4.70;;
10450;SDS011;5273;51.290;6.918;2023-07-29T06:07:25;4.72;;;4.30;;
10450;SDS011;5273;51.290;6.918;2023-07-29T06:09:54;5.32;;;3.92;;
10450;SDS011;5273;51.290;6.918;2023-07-29T06:12:22;5.18;;;4.22;;
10450;SDS011;5273;51.290;6.918;2023-07-29T06:14:50;4.65;;;4.25;;
10450;SDS011;5273;51.290;6.918;2023-07-29T06:17:17;4.00;;;3.65;;
10450;SDS011;5273;51.290;6.918;2023-07-29T06:19:44;5.15;;;3.90;;
10450;SDS011;5273;51.290;6.918;2023-07-29T06:22:11;5.25;;;3.97;;
10450;SDS011;5273;51.290;6.918;2023-07-29T06:24:38;3.38;;;3.08;;
10450;SDS011;5273;51.290;6.918;2023-07-29T06:27:05;4.47;;;3.63;;
10450;SDS011;5273;51.290;6.918;2023-07-29T06:29:32;4.13;;;3.20;;
10450;SDS011;5273;51.290;6.918;2023-07-29T06:32:00;3.35;;;2.90;;
10450;SDS011;5273;51.290;6.918;2023-07-29T06:34:27;3.40;;;3.10;;
10450;SDS011;5273;51.290;6.918;2023-07-29T06:36:54;4.13;;;3.08;;
10450;SDS011;5273;51.290;6.918;2023-07-29T06:39:21;3.90;;;2.78;;
10450;SDS011;5273;51.290;6.918;2023-07-29T06:41:47;3.00;;;2.72;;
10450;SDS011;5273;51.290;6.918;2023-07-29T06:44:14;2.58;;;2.35;;
10450;SDS011;5273;51.290;6.918;2023-07-29T06:46:41;4.45;;;2.30;;
10450;SDS011;5273;51.290;6.918;2023-07-29T06:49:09;4.88;;;2.22;;
10450;SDS011;5273;51.290;6.918;2023-07-29T06:51:36;3.50;;;1.95;;
10450;SDS011;5273;51.290;6.918;2023-07-29T06:54:03;2.42;;;1.90;;
10450;SDS011;5273;51.290;6.918;2023-07-29T06:56:29;3.55;;;1.83;;
10450;SDS011;5273;51.290;6.918;2023-07-29T06:58:56;2.08;;;1.83;;
10450;SDS011;5273;51.290;6.918;2023-07-29T07:01:23;2.10;;;1.90;;
10450;SDS011;5273;51.290;6.918;2023-07-29T07:03:50;9.70;;;2.60;;
10450;SDS011;5273;51.290;6.918;2023-07-29T07:06:20;1.50;;;1.40;;
10450;SDS011;5273;51.290;6.918;2023-07-29T07:08:49;2.95;;;1.50;;
10450;SDS011;5273;51.290;6.918;2023-07-29T07:11:16;1.25;;;1.20;;
10450;SDS011;5273;51.290;6.918;2023-07-29T07:13:44;2.35;;;1.58;;
10450;SDS011;5273;51.290;6.918;2023-07-29T07:16:11;2.25;;;1.55;;
10450;SDS011;5273;51.290;6.918;2023-07-29T07:18:37;2.40;;;1.40;;
10450;SDS011;5273;51.290;6.918;2023-07-29T07:21:04;2.03;;;1.40;;
10450;SDS011;5273;51.290;6.918;2023-07-29T07:23:32;2.20;;;1.45;;
10450;SDS011;5273;51.290;6.918;2023-07-29T07:25:59;2.00;;;1.73;;
10450;SDS011;5273;51.290;6.918;2023-07-29T07:28:26;6.45;;;1.35;;
10450;SDS011;5273;51.290;6.918;2023-07-29T07:30:52;1.50;;;1.33;;
10450;SDS011;5273;51.290;6.918;2023-07-29T07:33:20;3.05;;;1.25;;
10450;SDS011;5273;51.290;6.918;2023-07-29T07:35:47;3.78;;;1.40;;
10450;SDS011;5273;51.290;6.918;2023-07-29T07:38:14;1.48;;;1.38;;
10450;SDS011;5273;51.290;6.918;2023-07-29T07:40:42;2.05;;;1.20;;
10450;SDS011;5273;51.290;6.918;2023-07-29T07:43:18;2.53;;;1.30;;
10450;SDS011;5273;51.290;6.918;2023-07-29T07:45:44;1.30;;;1.20;;
10450;SDS011;5273;51.290;6.918;2023-07-29T07:48:11;1.58;;;1.38;;
10450;SDS011;5273;51.290;6.918;2023-07-29T07:50:38;2.42;;;1.60;;
10450;SDS011;5273;51.290;6.918;2023-07-29T07:53:05;5.35;;;1.60;;
10450;SDS011;5273;51.290;6.918;2023-07-29T07:55:32;3.60;;;1.50;;
10450;SDS011;5273;51.290;6.918;2023-07-29T07:58:00;2.63;;;1.23;;
10450;SDS011;5273;51.290;6.918;2023-07-29T08:00:27;0.95;;;0.95;;
10450;SDS011;5273;51.290;6.918;2023-07-29T08:02:53;1.52;;;1.42;;
10450;SDS011;5273;51.290;6.918;2023-07-29T08:05:20;1.38;;;1.25;;
10450;SDS011;5273;51.290;6.918;2023-07-29T08:07:47;3.28;;;1.48;;
10450;SDS011;5273;51.290;6.918;2023-07-29T08:10:14;1.40;;;1.30;;
10450;SDS011;5273;51.290;6.918;2023-07-29T08:12:40;1.40;;;1.30;;
10450;SDS011;5273;51.290;6.918;2023-07-29T08:15:09;1.38;;;1.27;;
10450;SDS011;5273;51.290;6.918;2023-07-29T08:17:35;1.30;;;1.25;;
10450;SDS011;5273;51.290;6.918;2023-07-29T08:20:02;1.15;;;1.05;;
10450;SDS011;5273;51.290;6.918;2023-07-29T08:22:30;1.10;;;1.10;;
10450;SDS011;5273;51.290;6.918;2023-07-29T08:24:56;1.20;;;1.10;;
10450;SDS011;5273;51.290;6.918;2023-07-29T08:27:23;1.33;;;1.23;;
10450;SDS011;5273;51.290;6.918;2023-07-29T08:29:50;1.40;;;1.15;;
10450;SDS011;5273;51.290;6.918;2023-07-29T08:32:18;1.25;;;1.20;;
10450;SDS011;5273;51.290;6.918;2023-07-29T08:34:45;2.88;;;1.38;;
10450;SDS011;5273;51.290;6.918;2023-07-29T08:37:11;1.17;;;1.15;;
10450;SDS011;5273;51.290;6.918;2023-07-29T08:39:38;2.15;;;1.23;;
10450;SDS011;5273;51.290;6.918;2023-07-29T08:42:06;2.90;;;1.00;;
10450;SDS011;5273;51.290;6.918;2023-07-29T08:44:36;0.88;;;0.88;;
10450;SDS011;5273;51.290;6.918;2023-07-29T08:47:06;2.03;;;1.10;;
10450;SDS011;5273;51.290;6.918;2023-07-29T08:49:35;1.00;;;1.00;;
10450;SDS011;5273;51.290;6.918;2023-07-29T08:52:03;1.88;;;1.20;;
10450;SDS011;5273;51.290;6.918;2023-07-29T08:54:31;1.23;;;0.90;;
10450;SDS011;5273;51.290;6.918;2023-07-29T08:56:58;1.17;;;0.80;;
10450;SDS011;5273;51.290;6.918;2023-07-29T08:59:26;1.17;;;1.08;;
10450;SDS011;5273;51.290;6.918;2023-07-29T09:01:54;1.75;;;0.93;;
10450;SDS011;5273;51.290;6.918;2023-07-29T09:04:23;1.10;;;1.10;;
10450;SDS011;5273;51.290;6.918;2023-07-29T09:06:51;1.67;;;0.80;;
10450;SDS011;5273;51.290;6.918;2023-07-29T09:09:21;1.30;;;1.02;;
10450;SDS011;5273;51.290;6.918;2023-07-29T09:11:48;1.10;;;1.10;;
10450;SDS011;5273;51.290;6.918;2023-07-29T09:14:15;2.33;;;1.20;;
10450;SDS011;5273;51.290;6.918;2023-07-29T09:16:43;1.10;;;1.10;;
10450;SDS011;5273;51.290;6.918;2023-07-29T09:19:10;0.90;;;0.90;;
10450;SDS011;5273;51.290;6.918;2023-07-29T09:21:38;1.80;;;0.85;;
10450;SDS011;5273;51.290;6.918;2023-07-29T09:24:07;0.82;;;0.82;;
10450;SDS011;5273;51.290;6.918;2023-07-29T09:26:35;0.60;;;0.60;;
10450;SDS011;5273;51.290;6.918;2023-07-29T09:29:02;1.98;;;0.80;;
10450;SDS011;5273;51.290;6.918;2023-07-29T09:31:29;1.15;;;0.98;;
10450;SDS011;5273;51.290;6.918;2023-07-29T09:33:56;1.10;;;0.73;;
10450;SDS011;5273;51.290;6.918;2023-07-29T09:36:24;0.95;;;0.82;;
10450;SDS011;5273;51.290;6.918;2023-07-29T09:38:52;1.40;;;1.05;;
10450;SDS011;5273;51.290;6.918;2023-07-29T09:41:23;0.77;;;0.77;;
10450;SDS011;5273;51.290;6.918;2023-07-29T09:43:55;1.27;;;1.02;;
10450;SDS011;5273;51.290;6.918;2023-07-29T09:46:23;0.95;;;0.95;;
10450;SDS011;5273;51.290;6.918;2023-07-29T09:48:52;0.90;;;0.88;;
10450;SDS011;5273;51.290;6.918;2023-07-29T09:51:20;1.10;;;1.10;;
10450;SDS011;5273;51.290;6.918;2023-07-29T09:53:48;1.02;;;1.00;;
10450;SDS011;5273;51.290;6.918;2023-07-29T09:56:15;0.88;;;0.88;;
10450;SDS011;5273;51.290;6.918;2023-07-29T09:58:44;1.05;;;0.93;;
10450;SDS011;5273;51.290;6.918;2023-07-29T10:01:11;2.30;;;1.23;;
10450;SDS011;5273;51.290;6.918;2023-07-29T10:03:40;2.80;;;1.10;;
10450;SDS011;5273;51.290;6.918;2023-07-29T10:06:08;1.23;;;1.13;;
10450;SDS011;5273;51.290;6.918;2023-07-29T10:08:34;1.75;;;1.13;;
10450;SDS011;5273;51.290;6.918;2023-07-29T10:11:03;1.13;;;0.90;;
10450;SDS011;5273;51.290;6.918;2023-07-29T10:13:33;3.67;;;1.33;;
10450;SDS011;5273;51.290;6.918;2023-07-29T10:16:02;1.30;;;1.20;;
10450;SDS011;5273;51.290;6.918;2023-07-29T10:18:30;2.38;;;1.20;;
10450;SDS011;5273;51.290;6.918;2023-07-29T10:20:59;2.10;;;1.27;;
10450;SDS011;5273;51.290;6.918;2023-07-29T10:23:27;1.20;;;1.10;;
10450;SDS011;5273;51.290;6.918;2023-07-29T10:26:01;1.88;;;1.20;;
10450;SDS011;5273;51.290;6.918;2023-07-29T10:28:30;1.40;;;1.30;;
10450;SDS011;5273;51.290;6.918;2023-07-29T10:30:58;2.15;;;1.33;;
10450;SDS011;5273;51.290;6.918;2023-07-29T10:33:26;1.13;;;0.95;;
10450;SDS011;5273;51.290;6.918;2023-07-29T10:35:53;1.15;;;1.05;;
10450;SDS011;5273;51.290;6.918;2023-07-29T10:38:21;1.00;;;1.00;;
10450;SDS011;5273;51.290;6.918;2023-07-29T10:40:50;7.00;;;1.33;;
10450;SDS011;5273;51.290;6.918;2023-07-29T10:43:19;1.85;;;1.23;;
10450;SDS011;5273;51.290;6.918;2023-07-29T10:45:49;1.35;;;1.20;;
10450;SDS011;5273;51.290;6.918;2023-07-29T10:51:22;1.40;;;1.30;;
10450;SDS011;5273;51.290;6.918;2023-07-29T10:53:55;3.70;;;1.33;;
10450;SDS011;5273;51.290;6.918;2023-07-29T10:56:29;1.27;;;1.17;;
10450;SDS011;5273;51.290;6.918;2023-07-29T10:58:58;1.90;;;1.42;;
10450;SDS011;5273;51.290;6.918;2023-07-29T11:01:28;1.83;;;1.17;;
10450;SDS011;5273;51.290;6.918;2023-07-29T11:09:53;1.17;;;1.10;;
10450;SDS011;5273;51.290;6.918;2023-07-29T11:12:41;1.20;;;1.10;;
10450;SDS011;5273;51.290;6.918;2023-07-29T11:17:56;3.22;;;1.30;;
10450;SDS011;5273;51.290;6.918;2023-07-29T11:20:25;2.97;;;1.30;;
10450;SDS011;5273;51.290;6.918;2023-07-29T11:22:52;1.50;;;1.40;;
10450;SDS011;5273;51.290;6.918;2023-07-29T11:25:21;2.88;;;1.35;;
10450;SDS011;5273;51.290;6.918;2023-07-29T11:27:52;1.65;;;1.50;;
10450;SDS011;5273;51.290;6.918;2023-07-29T11:30:19;1.17;;;1.10;;
10450;SDS011;5273;51.290;6.918;2023-07-29T11:32:48;1.88;;;1.30;;
10450;SDS011;5273;51.290;6.918;2023-07-29T11:35:15;1.30;;;1.20;;
10450;SDS011;5273;51.290;6.918;2023-07-29T11:37:46;4.20;;;1.38;;
10450;SDS011;5273;51.290;6.918;2023-07-29T11:40:14;1.67;;;1.58;;
10450;SDS011;5273;51.290;6.918;2023-07-29T11:42:42;1.23;;;1.13;;
10450;SDS011;5273;51.290;6.918;2023-07-29T11:45:09;2.28;;;1.13;;
10450;SDS011;5273;51.290;6.918;2023-07-29T11:47:36;1.30;;;1.20;;
10450;SDS011;5273;51.290;6.918;2023-07-29T11:50:03;1.33;;;1.23;;
10450;SDS011;5273;51.290;6.918;2023-07-29T11:52:31;1.45;;;1.30;;
10450;SDS011;5273;51.290;6.918;2023-07-29T11:55:01;1.52;;;1.42;;
10450;SDS011;5273;51.290;6.918;2023-07-29T11:57:28;1.58;;;1.35;;
10450;SDS011;5273;51.290;6.918;2023-07-29T11:59:56;1.40;;;1.30;;
10450;SDS011;5273;51.290;6.918;2023-07-29T12:02:23;1.58;;;1.35;;
10450;SDS011;5273;51.290;6.918;2023-07-29T12:04:51;1.63;;;1.50;;
10450;SDS011;5273;51.290;6.918;2023-07-29T12:07:18;2.90;;;2.00;;
10450;SDS011;5273;51.290;6.918;2023-07-29T12:09:46;3.08;;;1.90;;
10450;SDS011;5273;51.290;6.918;2023-07-29T12:12:14;1.70;;;1.40;;
10450;SDS011;5273;51.290;6.918;2023-07-29T12:14:43;3.30;;;1.50;;
10450;SDS011;5273;51.290;6.918;2023-07-29T12:17:11;3.03;;;1.92;;
10450;SDS011;5273;51.290;6.918;2023-07-29T12:19:39;2.97;;;1.67;;
10450;SDS011;5273;51.290;6.918;2023-07-29T12:22:07;2.13;;;1.50;;
10450;SDS011;5273;51.290;6.918;2023-07-29T12:24:36;1.60;;;1.50;;
10450;SDS011;5273;51.290;6.918;2023-07-29T12:27:05;4.05;;;2.03;;
10450;SDS011;5273;51.290;6.918;2023-07-29T12:29:40;1.63;;;1.50;;
10450;SDS011;5273;51.290;6.918;2023-07-29T12:32:08;2.28;;;2.00;;
10450;SDS011;5273;51.290;6.918;2023-07-29T12:34:36;2.67;;;1.90;;
10450;SDS011;5273;51.290;6.918;2023-07-29T12:37:05;2.90;;;1.60;;
10450;SDS011;5273;51.290;6.918;2023-07-29T12:39:33;1.88;;;1.60;;
10450;SDS011;5273;51.290;6.918;2023-07-29T12:42:01;1.40;;;1.30;;
10450;SDS011;5273;51.290;6.918;2023-07-29T12:44:29;1.95;;;1.38;;
10450;SDS011;5273;51.290;6.918;2023-07-29T12:46:59;1.40;;;1.30;;
10450;SDS011;5273;51.290;6.918;2023-07-29T12:49:26;1.65;;;1.55;;
10450;SDS011;5273;51.290;6.918;2023-07-29T12:51:54;4.57;;;1.50;;
10450;SDS011;5273;51.290;6.918;2023-07-29T12:54:21;2.80;;;1.30;;
10450;SDS011;5273;51.290;6.918;2023-07-29T12:56:48;1.17;;;1.17;;
10450;SDS011;5273;51.290;6.918;2023-07-29T12:59:15;1.33;;;1.25;;
10450;SDS011;5273;51.290;6.918;2023-07-29T13:01:42;1.95;;;1.52;;
10450;SDS011;5273;51.290;6.918;2023-07-29T13:04:10;1.35;;;1.25;;
10450;SDS011;5273;51.290;6.918;2023-07-29T13:06:37;1.25;;;1.15;;
10450;SDS011;5273;51.290;6.918;2023-07-29T13:09:04;3.22;;;1.60;;
10450;SDS011;5273;51.290;6.918;2023-07-29T13:11:31;2.67;;;1.60;;
10450;SDS011;5273;51.290;6.918;2023-07-29T13:13:58;1.70;;;1.15;;
10450;SDS011;5273;51.290;6.918;2023-07-29T13:16:25;1.50;;;1.35;;
10450;SDS011;5273;51.290;6.918;2023-07-29T13:18:52;2.28;;;1.52;;
10450;SDS011;5273;51.290;6.918;2023-07-29T13:21:20;2.00;;;1.20;;
10450;SDS011;5273;51.290;6.918;2023-07-29T13:23:47;1.77;;;1.67;;
10450;SDS011;5273;51.290;6.918;2023-07-29T13:26:14;1.70;;;1.60;;
10450;SDS011;5273;51.290;6.918;2023-07-29T13:28:41;1.77;;;1.50;;
10450;SDS011;5273;51.290;6.918;2023-07-29T13:31:08;1.83;;;1.70;;
10450;SDS011;5273;51.290;6.918;2023-07-29T13:33:35;2.38;;;1.55;;
10450;SDS011;5273;51.290;6.918;2023-07-29T13:36:03;3.60;;;1.50;;
10450;SDS011;5273;51.290;6.918;2023-07-29T13:38:31;2.30;;;1.55;;
10450;SDS011;5273;51.290;6.918;2023-07-29T13:40:58;1.88;;;1.52;;
10450;SDS011;5273;51.290;6.918;2023-07-29T13:43:25;1.88;;;1.60;;
10450;SDS011;5273;51.290;6.918;2023-07-29T13:45:52;1.60;;;1.50;;
10450;SDS011;5273;51.290;6.918;2023-07-29T13:48:19;1.60;;;1.48;;
10450;SDS011;5273;51.290;6.918;2023-07-29T13:50:46;2.47;;;1.90;;
10450;SDS011;5273;51.290;6.918;2023-07-29T13:53:13;2.08;;;1.45;;
10450;SDS011;5273;51.290;6.918;2023-07-29T13:55:41;2.50;;;1.60;;
10450;SDS011;5273;51.290;6.918;2023-07-29T13:58:08;1.80;;;1.70;;
10450;SDS011;5273;51.290;6.918;2023-07-29T14:00:35;2.08;;;1.52;;
10450;SDS011;5273;51.290;6.918;2023-07-29T14:03:02;1.88;;;1.77;;
10450;SDS011;5273;51.290;6.918;2023-07-29T14:05:29;1.70;;;1.60;;
10450;SDS011;5273;51.290;6.918;2023-07-29T14:07:56;3.38;;;1.73;;
10450;SDS011;5273;51.290;6.918;2023-07-29T14:10:23;1.70;;;1.60;;
10450;SDS011;5273;51.290;6.918;2023-07-29T14:12:52;1.90;;;1.48;;
10450;SDS011;5273;51.290;6.918;2023-07-29T14:15:18;3.75;;;1.60;;
10450;SDS011;5273;51.290;6.918;2023-07-29T14:17:45;1.63;;;1.52;;
10450;SDS011;5273;51.290;6.918;2023-07-29T14:20:12;1.85;;;1.52;;
10450;SDS011;5273;51.290;6.918;2023-07-29T14:22:39;2.00;;;1.60;;
10450;SDS011;5273;51.290;6.918;2023-07-29T14:25:07;2.00;;;1.80;;
10450;SDS011;5273;51.290;6.918;2023-07-29T14:27:34;2.00;;;1.80;;
10450;SDS011;5273;51.290;6.918;2023-07-29T14:30:02;5.65;;;2.08;;
10450;SDS011;5273;51.290;6.918;2023-07-29T14:32:29;2.28;;;1.45;;
10450;SDS011;5273;51.290;6.918;2023-07-29T14:34:56;1.77;;;1.38;;
10450;SDS011;5273;51.290;6.918;2023-07-29T14:37:25;3.20;;;1.73;;
10450;SDS011;5273;51.290;6.918;2023-07-29T14:39:52;2.85;;;1.73;;
10450;SDS011;5273;51.290;6.918;2023-07-29T14:42:19;1.77;;;1.52;;
10450;SDS011;5273;51.290;6.918;2023-07-29T14:44:46;1.50;;;1.40;;
10450;SDS011;5273;51.290;6.918;2023-07-29T14:47:14;3.28;;;1.92;;
10450;SDS011;5273;51.290;6.918;2023-07-29T14:49:41;1.50;;;1.40;;
10450;SDS011;5273;51.290;6.918;2023-07-29T14:52:08;1.58;;;1.48;;
10450;SDS011;5273;51.290;6.918;2023-07-29T14:54:35;1.92;;;1.70;;
10450;SDS011;5273;51.290;6.918;2023-07-29T14:57:01;2.33;;;1.60;;
10450;SDS011;5273;51.290;6.918;2023-07-29T14:59:28;1.70;;;1.60;;
10450;SDS011;5273;51.290;6.918;2023-07-29T15:01:55;2.67;;;1.70;;
10450;SDS011;5273;51.290;6.918;2023-07-29T15:04:23;1.60;;;1.50;;
10450;SDS011;5273;51.290;6.918;2023-07-29T15:06:50;1.38;;;1.33;;
10450;SDS011;5273;51.290;6.918;2023-07-29T15:09:17;1.63;;;1.40;;
10450;SDS011;5273;51.290;6.918;2023-07-29T15:11:44;3.45;;;1.80;;
10450;SDS011;5273;51.290;6.918;2023-07-29T15:14:11;1.75;;;1.50;;